Serra, Brazil
Current Conditions -  °F | °C
As of 3:00 PM on Friday 28 Nov 2014 (Local Time) from SBVT Reporting Station
Light Rain Light Rain  
Wind Chill: 77°   Ceiling: 2000
Heat Index: 79°   Visibility: 3mi
Dew Point: 68°   Wind: 12mph
Humidity: 74%   Direction: 170°S
Pressure: 29.91"   Gusts: NA
Location:  20.13°S, 40.32°W
Report Text: SBVT 281700Z 17010KT 5000 -RA FEW010 BKN020 OVC080 25/20 Q1013
Loading
Personal Weather Stations






























Interactive Weather Map New forecast layout! Learn more

10-Day Weather Forecast

Advertisements
Track Severe Weather on mobile